Colfax, IL (61728)

6:57 AM CST on February 06, 2016 (GMT -0600)
West Cooper St - garden | | Change Station
CLOSE
Current Station
Personal Weather Station
Location: Colfax, IL
Elevation: 758 ft
Nearby Weather Stations

Elev 758 ft 40.57 °N, 88.62 °W | Updated 1 second ago

Partly Cloudy
Partly Cloudy
26.8 °F
Feels Like 27 °F
N
0.0
Wind Variable Wind from SSW
Gusts 0.0 mph

Today
High -- | Low -- °F
--% Chance of Precip.
Yesterday
High -- | Low -- °F
Precip. -- in
Pressure 30.31 in
Visibility 7.0 miles
Clouds Clear
Windchill 27 °F
Dew Point 22 °F
Humidity 82%
Rainfall 0.00 in
Snow Depth Not available.
6:59 AM 5:18 PM
Waning Crescent, 6% visible
SPECI KBMI 061240Z 21006KT 7SM CLR M04/M05 A3031 RMK AO2
Pressure 30.31 in
Visibility 7.0 miles
Clouds Clear
Windchill 27 °F
Dew Point 22 °F
Humidity 82%
Rainfall 0.00 in
Snow Depth Not available.
6:59 AM 5:18 PM
Waning Crescent, 6% visible
SPECI KBMI 061240Z 21006KT 7SM CLR M04/M05 A3031 RMK AO2

10-Day Weather Forecast

Almanac

Astronomy

Feb. 06, 2016 Rise Set
Actual Time
Civil Twilight
Nautical Twilight
Astronomical Twilight
Moon
Length of Visible Light
Length of Day
Tomorrow will be .
, % of the Moon is Illuminated

Today's Extremes

State Highs State Lows

Community

WunderPhotos

Upload Photos

1,890,954 photos uploaded!

WunderBlog® & News

Nearby

Air Quality

  Air Quality AQ Index Pollutant
Not available.

Snow Depth

Station Depth Elevation

Earthquake Activity

City Distance Mag. Time & Date
Minimum magnitude displayed is 2.5.

Coastal Water Temperatures

Place Temperature

Stations

Nearby Weather Stations

Station Location Temp. Windchill Dew Point Humidity Wind Precip. Elev Updated Type
                   

Watches & Warnings

There are currently no watches in effect.